createdAt,value
2022-09-26T00:00:18.281Z,18.67
2022-09-26T00:02:45.465Z,18.38
2022-09-26T00:05:13.341Z,21.00
2022-09-26T00:07:40.498Z,18.15
2022-09-26T00:10:07.985Z,20.08
2022-09-26T00:12:35.215Z,18.70
2022-09-26T00:15:02.468Z,17.58
2022-09-26T00:17:29.621Z,18.60
2022-09-26T00:19:56.897Z,16.20
2022-09-26T00:22:24.152Z,17.02
2022-09-26T00:24:51.294Z,16.17
2022-09-26T00:27:19.688Z,18.42
2022-09-26T00:29:46.845Z,18.23
2022-09-26T00:32:13.970Z,20.95
2022-09-26T00:34:41.241Z,20.80
2022-09-26T00:37:08.389Z,20.02
2022-09-26T00:39:35.577Z,23.05
2022-09-26T00:42:02.814Z,16.95
2022-09-26T00:44:32.692Z,17.80
2022-09-26T00:46:59.922Z,18.52
2022-09-26T00:49:31.423Z,17.95
2022-09-26T00:52:00.895Z,18.45
2022-09-26T00:54:29.288Z,16.40
2022-09-26T00:56:58.053Z,16.48
2022-09-26T00:59:30.357Z,22.40
2022-09-26T01:01:59.580Z,15.60
2022-09-26T01:04:28.722Z,18.40
2022-09-26T01:06:57.318Z,16.25
2022-09-26T01:09:24.971Z,16.40
2022-09-26T01:11:52.199Z,15.57
2022-09-26T01:14:19.380Z,15.85
2022-09-26T01:16:49.048Z,17.13
2022-09-26T01:19:24.596Z,16.45
2022-09-26T01:21:54.989Z,16.65
2022-09-26T01:24:24.866Z,17.35
2022-09-26T01:27:15.362Z,16.80
2022-09-26T01:30:01.719Z,16.50
2022-09-26T01:32:50.409Z,17.00
2022-09-26T01:35:32.677Z,17.08
2022-09-26T01:38:06.775Z,17.42
2022-09-26T01:40:43.604Z,15.38
2022-09-26T01:43:14.131Z,18.13
2022-09-26T01:45:47.363Z,20.90
2022-09-26T01:48:18.951Z,16.80
2022-09-26T01:50:48.873Z,17.10
2022-09-26T01:53:16.176Z,16.13
2022-09-26T01:55:47.138Z,17.27
2022-09-26T01:58:14.259Z,15.82
2022-09-26T02:00:43.194Z,16.23
2022-09-26T02:03:13.544Z,17.13
2022-09-26T02:05:47.149Z,14.57
2022-09-26T02:08:19.614Z,16.05
2022-09-26T02:10:48.286Z,14.20
2022-09-26T02:13:21.217Z,13.45
2022-09-26T02:15:51.587Z,14.27
2022-09-26T02:18:24.665Z,14.80
2022-09-26T02:20:55.762Z,14.38
2022-09-26T02:23:22.947Z,13.02
2022-09-26T02:25:51.158Z,15.32
2022-09-26T02:28:18.372Z,13.80
2022-09-26T02:30:46.615Z,15.60
2022-09-26T02:33:14.108Z,15.00
2022-09-26T02:35:57.389Z,14.10
2022-09-26T02:38:26.701Z,14.40
2022-09-26T02:41:00.746Z,14.77
2022-09-26T02:43:54.183Z,17.20
2022-09-26T02:46:27.394Z,14.93
2022-09-26T02:48:57.482Z,17.90
2022-09-26T02:51:41.922Z,18.85
2022-09-26T02:54:09.202Z,17.80
2022-09-26T02:56:54.067Z,13.27
2022-09-26T02:59:23.377Z,14.88
2022-09-26T03:01:59.754Z,14.30
2022-09-26T03:04:40.844Z,13.85
2022-09-26T03:07:11.701Z,13.38
2022-09-26T03:09:39.947Z,11.63
2022-09-26T03:12:10.128Z,11.45
2022-09-26T03:14:38.777Z,13.27
2022-09-26T03:17:05.985Z,13.82
2022-09-26T03:19:36.292Z,13.02
2022-09-26T03:22:03.462Z,16.53
2022-09-26T03:24:30.697Z,12.23
2022-09-26T03:26:58.070Z,15.02
2022-09-26T03:29:25.210Z,14.25
2022-09-26T03:31:53.184Z,10.32
2022-09-26T03:34:20.560Z,14.40
2022-09-26T03:36:47.706Z,12.75
2022-09-26T03:39:15.022Z,12.38
2022-09-26T03:41:42.447Z,13.35
2022-09-26T03:44:09.652Z,14.25
2022-09-26T03:46:40.043Z,11.88
2022-09-26T03:49:07.639Z,13.07
2022-09-26T03:51:34.793Z,11.65
2022-09-26T03:54:02.066Z,14.00
2022-09-26T03:56:29.418Z,14.35
2022-09-26T03:58:56.609Z,15.10
2022-09-26T04:01:23.867Z,17.50
2022-09-26T04:03:51.537Z,16.08
2022-09-26T04:06:20.102Z,17.15
2022-09-26T04:08:48.966Z,16.40
2022-09-26T04:11:18.883Z,16.80
2022-09-26T04:13:51.762Z,18.40
2022-09-26T04:16:20.538Z,16.88
2022-09-26T04:18:48.025Z,18.33
2022-09-26T04:21:15.727Z,15.18
2022-09-26T04:23:44.295Z,16.60
2022-09-26T04:26:21.781Z,17.63
2022-09-26T04:28:52.331Z,15.68
2022-09-26T04:31:21.431Z,17.10
2022-09-26T04:33:49.125Z,15.05
2022-09-26T04:36:16.965Z,17.45
2022-09-26T04:38:44.247Z,16.52
2022-09-26T04:41:15.838Z,14.45
2022-09-26T04:43:43.312Z,16.90
2022-09-26T04:46:11.829Z,15.13
2022-09-26T04:48:39.266Z,15.48
2022-09-26T04:51:10.206Z,14.82
2022-09-26T04:53:38.525Z,17.38
2022-09-26T04:56:06.418Z,15.75
2022-09-26T04:58:33.711Z,16.15
2022-09-26T05:01:04.724Z,18.23
2022-09-26T05:03:32.082Z,18.02
2022-09-26T05:05:59.743Z,17.42
2022-09-26T05:08:26.993Z,15.65
2022-09-26T05:10:55.098Z,19.23
2022-09-26T05:13:23.226Z,20.52
2022-09-26T05:15:53.258Z,17.50
2022-09-26T05:18:21.392Z,21.02
2022-09-26T05:20:49.146Z,19.58
2022-09-26T05:23:37.753Z,19.88
2022-09-26T05:26:23.804Z,20.20
2022-09-26T05:28:55.604Z,21.40
2022-09-26T05:31:24.984Z,22.48
2022-09-26T05:33:52.243Z,23.23
2022-09-26T05:36:19.903Z,21.33
2022-09-26T05:38:47.253Z,21.35
2022-09-26T05:41:14.855Z,22.45
2022-09-26T05:43:42.049Z,23.70
2022-09-26T05:46:10.818Z,23.52
2022-09-26T05:48:39.493Z,22.50
2022-09-26T05:51:06.977Z,22.75
2022-09-26T05:53:34.361Z,24.92
2022-09-26T05:56:01.581Z,23.20
2022-09-26T05:58:31.297Z,22.58
2022-09-26T06:01:24.633Z,21.95
2022-09-26T06:03:51.829Z,22.50
2022-09-26T06:06:19.654Z,23.73
2022-09-26T06:08:47.695Z,17.10
2022-09-26T06:11:15.974Z,22.20
2022-09-26T06:13:45.696Z,17.83
2022-09-26T06:16:14.745Z,19.73
2022-09-26T06:18:42.100Z,20.00
2022-09-26T06:21:10.479Z,21.02
2022-09-26T06:23:38.076Z,20.42
2022-09-26T06:26:08.449Z,17.42
2022-09-26T06:28:39.464Z,17.60
2022-09-26T06:31:13.422Z,15.57
2022-09-26T06:33:40.713Z,17.20
2022-09-26T06:36:08.922Z,14.20
2022-09-26T06:38:36.574Z,16.83
2022-09-26T06:41:04.392Z,15.05
2022-09-26T06:43:31.633Z,16.80
2022-09-26T06:45:58.805Z,16.38
2022-09-26T06:48:26.183Z,18.17
2022-09-26T06:50:54.287Z,14.45
2022-09-26T06:53:21.846Z,15.50
2022-09-26T06:55:49.149Z,14.57
2022-09-26T06:58:16.513Z,15.13
2022-09-26T07:00:44.486Z,21.25
2022-09-26T07:03:13.637Z,28.45
2022-09-26T07:05:40.858Z,50.63
2022-09-26T07:08:08.025Z,37.92
2022-09-26T07:10:35.265Z,28.25
2022-09-26T07:13:04.360Z,22.83
2022-09-26T07:15:33.430Z,15.13
2022-09-26T07:18:02.449Z,16.92
2022-09-26T07:20:32.066Z,15.32
2022-09-26T07:23:05.920Z,16.73
2022-09-26T07:25:33.442Z,15.15
2022-09-26T07:28:00.948Z,17.77
2022-09-26T07:30:28.684Z,17.05
2022-09-26T07:33:05.465Z,21.05
2022-09-26T07:35:33.938Z,19.02
2022-09-26T07:38:01.078Z,20.15
2022-09-26T07:40:28.664Z,20.70
2022-09-26T07:43:18.565Z,21.65
2022-09-26T07:46:06.079Z,22.08
2022-09-26T07:48:52.262Z,21.13
2022-09-26T07:51:20.645Z,17.50
2022-09-26T07:53:47.855Z,22.08
2022-09-26T07:56:16.549Z,20.17
2022-09-26T07:58:44.539Z,19.25
2022-09-26T08:01:14.085Z,29.30
2022-09-26T08:03:42.342Z,22.13
2022-09-26T08:06:10.138Z,15.68
2022-09-26T08:08:37.457Z,15.98
2022-09-26T08:11:05.805Z,17.40
2022-09-26T08:13:33.469Z,16.05
2022-09-26T08:16:06.140Z,38.85
2022-09-26T08:18:34.118Z,81.85
2022-09-26T08:21:07.710Z,53.53
2022-09-26T08:23:35.069Z,25.50
2022-09-26T08:26:07.005Z,22.50
2022-09-26T08:28:35.302Z,26.73
2022-09-26T08:31:03.534Z,21.58
2022-09-26T08:33:33.997Z,44.40
2022-09-26T08:36:05.802Z,36.80
2022-09-26T08:38:33.324Z,33.60
2022-09-26T08:41:06.527Z,25.77
2022-09-26T08:43:33.699Z,19.30
2022-09-26T08:46:13.141Z,22.65
2022-09-26T08:48:40.615Z,18.50
2022-09-26T08:51:28.256Z,18.30
2022-09-26T08:54:06.377Z,19.25
2022-09-26T08:56:39.381Z,17.15
2022-09-26T08:59:07.895Z,20.02
2022-09-26T09:01:38.816Z,29.63
2022-09-26T09:04:11.482Z,22.90
2022-09-26T09:06:38.945Z,24.17
2022-09-26T09:09:06.413Z,31.02
2022-09-26T09:11:52.356Z,30.23
2022-09-26T09:14:38.485Z,47.92
2022-09-26T09:17:24.668Z,21.08
2022-09-26T09:20:00.904Z,25.13
2022-09-26T09:22:30.924Z,26.45
2022-09-26T09:24:58.206Z,60.90
2022-09-26T09:30:31.563Z,47.55
2022-09-26T09:33:00.708Z,43.05
2022-09-26T09:35:48.089Z,44.70
2022-09-26T09:38:19.959Z,63.80
2022-09-26T09:41:10.017Z,40.70
2022-09-26T09:43:40.595Z,42.92
2022-09-26T09:46:16.849Z,35.35
2022-09-26T09:48:44.656Z,20.05
2022-09-26T09:51:14.533Z,12.98
2022-09-26T09:53:59.849Z,36.65
2022-09-26T09:56:47.232Z,30.70
2022-09-26T09:59:24.911Z,19.50
2022-09-26T10:01:58.833Z,23.25
2022-09-26T10:04:27.881Z,19.10
2022-09-26T10:06:55.808Z,14.20
2022-09-26T10:09:36.460Z,12.10
2022-09-26T10:12:18.183Z,14.25
2022-09-26T10:14:50.594Z,12.32
2022-09-26T10:17:20.272Z,15.98
2022-09-26T10:19:48.141Z,17.83
2022-09-26T10:22:37.950Z,13.85
2022-09-26T10:25:28.362Z,13.57
2022-09-26T10:27:56.502Z,11.38
2022-09-26T10:30:26.700Z,14.15
2022-09-26T10:32:56.814Z,12.00
2022-09-26T10:35:25.566Z,12.18
2022-09-26T10:38:00.179Z,15.88
2022-09-26T10:40:48.008Z,15.15
2022-09-26T10:43:25.889Z,14.02
2022-09-26T10:45:55.580Z,15.23
2022-09-26T10:48:26.814Z,14.10
2022-09-26T10:51:00.608Z,19.83
2022-09-26T10:53:32.314Z,14.10
2022-09-26T10:56:01.310Z,14.18
2022-09-26T10:58:29.903Z,14.65
2022-09-26T11:01:00.076Z,14.88
2022-09-26T11:03:34.249Z,14.10
2022-09-26T11:06:01.878Z,12.23
2022-09-26T11:08:30.090Z,12.05
2022-09-26T11:10:58.294Z,11.63
2022-09-26T11:13:27.747Z,13.45
2022-09-26T11:16:01.470Z,10.82
2022-09-26T11:18:37.133Z,9.88
2022-09-26T11:21:27.822Z,9.45
2022-09-26T11:24:06.673Z,10.20
2022-09-26T11:26:45.242Z,8.98
2022-09-26T11:29:34.357Z,9.77
2022-09-26T11:32:02.525Z,7.93
2022-09-26T11:34:31.429Z,11.13
2022-09-26T11:37:00.750Z,8.73
2022-09-26T11:39:31.064Z,11.15
2022-09-26T11:42:05.727Z,10.70
2022-09-26T11:44:45.264Z,7.47
2022-09-26T11:47:15.255Z,9.10
2022-09-26T11:49:51.599Z,10.68
2022-09-26T11:52:37.520Z,8.10
2022-09-26T11:55:28.306Z,7.15
2022-09-26T11:57:55.475Z,5.85
2022-09-26T12:00:30.749Z,8.82
2022-09-26T12:03:00.733Z,8.05
2022-09-26T12:05:34.253Z,11.13
2022-09-26T12:08:21.722Z,5.75
2022-09-26T12:10:49.083Z,9.73
2022-09-26T12:13:22.322Z,8.52
2022-09-26T12:15:56.636Z,8.48
2022-09-26T12:18:24.152Z,10.10
2022-09-26T12:21:15.516Z,8.43
2022-09-26T12:23:45.667Z,8.68
2022-09-26T12:26:16.146Z,8.43
2022-09-26T12:28:49.359Z,5.38
2022-09-26T12:31:19.836Z,6.78
2022-09-26T12:33:56.299Z,7.25
2022-09-26T12:36:40.567Z,7.50
2022-09-26T12:39:10.679Z,6.75
2022-09-26T12:41:53.531Z,8.30
2022-09-26T12:44:35.666Z,6.57
2022-09-26T12:47:15.129Z,5.30
2022-09-26T12:49:42.244Z,6.93
2022-09-26T12:52:29.710Z,8.20
2022-09-26T12:55:05.390Z,6.57
2022-09-26T12:57:39.991Z,7.80
2022-09-26T13:00:13.382Z,8.50
2022-09-26T13:02:40.661Z,7.35
2022-09-26T13:05:19.479Z,6.00
2022-09-26T13:07:46.909Z,6.82
2022-09-26T13:10:14.017Z,8.48
2022-09-26T13:12:41.265Z,5.53
2022-09-26T13:15:23.797Z,6.65
2022-09-26T13:17:59.733Z,6.45
2022-09-26T13:20:34.988Z,7.03
2022-09-26T13:23:20.953Z,7.47
2022-09-26T13:25:54.866Z,8.55
2022-09-26T13:28:24.246Z,6.60
2022-09-26T13:30:58.285Z,10.80
2022-09-26T13:33:36.477Z,6.35
2022-09-26T13:36:04.538Z,10.02
2022-09-26T13:38:32.469Z,7.25
2022-09-26T13:41:09.640Z,8.40
2022-09-26T13:43:47.491Z,7.82
2022-09-26T13:46:34.699Z,10.93
2022-09-26T13:49:07.771Z,9.52
2022-09-26T13:51:49.371Z,9.13
2022-09-26T13:54:27.977Z,8.68
2022-09-26T13:56:56.130Z,8.05
2022-09-26T13:59:34.441Z,9.57
2022-09-26T14:02:18.608Z,8.88
2022-09-26T14:04:47.881Z,9.32
2022-09-26T14:07:38.088Z,9.45
2022-09-26T14:10:08.186Z,8.68
2022-09-26T14:12:52.553Z,8.53
2022-09-26T14:15:22.720Z,11.40
2022-09-26T14:17:52.865Z,10.47
2022-09-26T14:20:21.457Z,7.20
2022-09-26T14:22:52.664Z,7.72
2022-09-26T14:25:38.387Z,9.73
2022-09-26T14:28:21.634Z,7.28
2022-09-26T14:31:08.092Z,9.20
2022-09-26T14:33:35.317Z,7.03
2022-09-26T14:36:20.977Z,14.55
2022-09-26T14:38:49.171Z,12.25
2022-09-26T14:41:18.655Z,12.95
2022-09-26T14:43:46.254Z,14.77
2022-09-26T14:46:17.899Z,11.40
2022-09-26T14:48:45.403Z,12.23
2022-09-26T14:51:12.634Z,11.73
2022-09-26T14:53:51.693Z,11.07
2022-09-26T14:56:29.347Z,9.88
2022-09-26T14:59:15.127Z,12.02
2022-09-26T15:01:43.281Z,10.23
2022-09-26T15:04:15.312Z,10.13
2022-09-26T15:06:44.002Z,10.45
2022-09-26T15:09:12.267Z,10.88
2022-09-26T15:11:47.370Z,13.07
2022-09-26T15:14:38.160Z,9.80
2022-09-26T15:17:06.408Z,11.88
2022-09-26T15:19:36.241Z,8.80
2022-09-26T15:22:13.356Z,9.75
2022-09-26T15:24:40.591Z,10.40
2022-09-26T15:27:09.581Z,9.18
2022-09-26T15:29:37.730Z,11.80
2022-09-26T15:32:06.689Z,9.02
2022-09-26T15:34:39.867Z,11.77
2022-09-26T15:37:16.670Z,11.73
2022-09-26T15:39:44.391Z,11.25
2022-09-26T15:42:30.072Z,9.43
2022-09-26T15:44:59.055Z,10.20
2022-09-26T15:47:26.389Z,9.15
2022-09-26T15:50:14.415Z,12.13
2022-09-26T15:52:44.344Z,14.07
2022-09-26T15:55:21.875Z,10.45
2022-09-26T15:57:50.452Z,12.20
2022-09-26T16:00:18.530Z,10.40
2022-09-26T16:02:46.017Z,13.50
2022-09-26T16:05:13.646Z,9.55
2022-09-26T16:07:41.679Z,11.32
2022-09-26T16:10:20.585Z,11.77
2022-09-26T16:12:47.988Z,23.38
2022-09-26T16:15:18.565Z,13.00
2022-09-26T16:17:57.484Z,10.75
2022-09-26T16:20:29.184Z,10.82
2022-09-26T16:23:05.590Z,12.70
2022-09-26T16:25:47.857Z,10.02
2022-09-26T16:28:17.821Z,13.40
2022-09-26T16:31:03.704Z,8.93
2022-09-26T16:33:34.700Z,11.80
2022-09-26T16:36:17.291Z,11.45
2022-09-26T16:38:50.397Z,13.05
2022-09-26T16:41:48.988Z,11.25
2022-09-26T16:44:23.287Z,10.60
2022-09-26T16:46:54.392Z,10.93
2022-09-26T16:49:48.480Z,10.82
2022-09-26T16:52:25.176Z,14.35
2022-09-26T16:54:53.521Z,13.02
2022-09-26T16:57:25.526Z,12.40
2022-09-26T16:59:53.389Z,10.77
2022-09-26T17:02:26.890Z,12.13
2022-09-26T17:04:54.526Z,13.88
2022-09-26T17:07:22.948Z,15.27
2022-09-26T17:09:50.143Z,13.70
2022-09-26T17:12:22.394Z,13.77
2022-09-26T17:14:52.056Z,14.50
2022-09-26T17:17:25.837Z,12.93
2022-09-26T17:19:59.078Z,15.40
2022-09-26T17:22:26.795Z,11.30
2022-09-26T17:24:54.166Z,12.57
2022-09-26T17:27:27.246Z,13.80
2022-09-26T17:30:05.238Z,14.25
2022-09-26T17:32:37.390Z,12.85
2022-09-26T17:35:08.731Z,13.18
2022-09-26T17:37:35.947Z,12.30
2022-09-26T17:40:04.169Z,12.18
2022-09-26T17:42:31.355Z,11.75
2022-09-26T17:44:58.530Z,12.38
2022-09-26T17:47:26.554Z,12.68
2022-09-26T17:49:54.815Z,13.18
2022-09-26T17:52:28.967Z,14.40
2022-09-26T17:54:58.553Z,12.13
2022-09-26T17:57:27.838Z,15.10
2022-09-26T17:59:55.557Z,16.77
2022-09-26T18:02:27.342Z,17.88
2022-09-26T18:04:55.096Z,15.63
2022-09-26T18:07:22.747Z,19.27
2022-09-26T18:09:51.426Z,18.05
2022-09-26T18:12:21.910Z,14.55
2022-09-26T18:14:49.784Z,17.67
2022-09-26T18:17:18.449Z,18.35
2022-09-26T18:19:46.947Z,19.00
2022-09-26T18:22:21.791Z,20.52
2022-09-26T18:24:50.777Z,19.88
2022-09-26T18:27:18.283Z,19.40
2022-09-26T18:29:47.990Z,18.33
2022-09-26T18:32:24.503Z,18.67
2022-09-26T18:34:51.866Z,18.70
2022-09-26T18:37:19.018Z,16.83
2022-09-26T18:39:49.699Z,18.27
2022-09-26T18:42:22.613Z,17.48
2022-09-26T18:44:51.177Z,18.60
2022-09-26T18:47:18.543Z,18.13
2022-09-26T18:49:48.755Z,21.02
2022-09-26T18:52:17.443Z,23.63
2022-09-26T18:54:45.723Z,19.33
2022-09-26T18:57:32.122Z,22.98
2022-09-26T19:00:00.286Z,19.17
2022-09-26T19:02:29.610Z,17.45
2022-09-26T19:04:57.777Z,16.08
2022-09-26T19:07:25.302Z,12.50
2022-09-26T19:09:52.706Z,14.63
2022-09-26T19:12:20.241Z,13.38
2022-09-26T19:14:47.443Z,10.82
2022-09-26T19:17:14.636Z,12.68
2022-09-26T19:19:41.935Z,9.88
2022-09-26T19:22:17.089Z,10.35
2022-09-26T19:24:47.250Z,11.90
2022-09-26T19:27:17.478Z,9.80
2022-09-26T19:29:47.241Z,9.17
2022-09-26T19:32:32.507Z,9.57
2022-09-26T19:35:05.267Z,11.13
2022-09-26T19:37:32.516Z,11.65
2022-09-26T19:39:59.807Z,10.20
2022-09-26T19:42:27.214Z,10.38
2022-09-26T19:44:54.775Z,12.00
2022-09-26T19:47:23.468Z,12.95
2022-09-26T19:49:52.191Z,10.85
2022-09-26T19:52:20.477Z,9.05
2022-09-26T19:54:47.667Z,12.43
2022-09-26T19:57:22.157Z,11.75
2022-09-26T19:59:49.861Z,9.95
2022-09-26T20:02:18.359Z,10.52
2022-09-26T20:04:45.986Z,9.05
2022-09-26T20:07:14.105Z,12.05
2022-09-26T20:09:41.356Z,12.82
2022-09-26T20:12:08.991Z,13.60
2022-09-26T20:14:36.171Z,11.48
2022-09-26T20:17:06.930Z,13.32
2022-09-26T20:19:42.468Z,14.50
2022-09-26T20:22:14.439Z,12.80
2022-09-26T20:24:43.901Z,11.95
2022-09-26T20:27:15.751Z,12.10
2022-09-26T20:30:01.968Z,11.35
2022-09-26T20:32:29.141Z,12.70
2022-09-26T20:35:00.773Z,12.68
2022-09-26T20:37:34.765Z,12.68
2022-09-26T20:40:06.761Z,10.95
2022-09-26T20:42:36.548Z,13.10
2022-09-26T20:45:03.765Z,10.90
2022-09-26T20:47:31.021Z,12.10
2022-09-26T20:49:59.654Z,12.15
2022-09-26T20:52:28.091Z,11.63
2022-09-26T20:54:55.907Z,11.35
2022-09-26T20:57:24.050Z,11.02
2022-09-26T20:59:51.587Z,12.50
2022-09-26T21:02:25.243Z,11.88
2022-09-26T21:04:52.673Z,10.27
2022-09-26T21:07:20.026Z,10.68
2022-09-26T21:09:47.532Z,12.48
2022-09-26T21:12:15.603Z,11.20
2022-09-26T21:14:43.060Z,12.05
2022-09-26T21:17:29.212Z,13.25
2022-09-26T21:19:57.049Z,11.02
2022-09-26T21:22:25.962Z,12.15
2022-09-26T21:24:54.182Z,11.20
2022-09-26T21:27:21.720Z,12.40
2022-09-26T21:29:48.886Z,13.57
2022-09-26T21:32:18.291Z,13.48
2022-09-26T21:35:04.565Z,13.45
2022-09-26T21:37:32.278Z,12.90
2022-09-26T21:39:59.460Z,10.90
2022-09-26T21:42:26.652Z,12.30
2022-09-26T21:44:57.402Z,11.40
2022-09-26T21:47:24.659Z,13.80
2022-09-26T21:49:51.882Z,13.52
2022-09-26T21:52:37.070Z,13.93
2022-09-26T21:55:06.229Z,14.23
2022-09-26T21:57:35.264Z,11.55
2022-09-26T22:00:04.933Z,12.13
2022-09-26T22:02:32.182Z,10.93
2022-09-26T22:04:59.742Z,12.25
2022-09-26T22:07:27.327Z,11.85
2022-09-26T22:09:54.578Z,11.48
2022-09-26T22:12:22.301Z,11.60
2022-09-26T22:14:49.664Z,13.82
2022-09-26T22:17:16.873Z,12.48
2022-09-26T22:19:44.161Z,14.00
2022-09-26T22:22:11.778Z,13.48
2022-09-26T22:24:38.969Z,13.63
2022-09-26T22:27:06.185Z,11.45
2022-09-26T22:29:33.483Z,12.38
2022-09-26T22:32:01.403Z,13.65
2022-09-26T22:34:28.612Z,12.10
2022-09-26T22:36:55.948Z,11.77
2022-09-26T22:39:23.160Z,14.00
2022-09-26T22:41:50.425Z,16.70
2022-09-26T22:44:17.778Z,15.07
2022-09-26T22:46:45.075Z,13.80
2022-09-26T22:49:12.238Z,15.30
2022-09-26T22:51:39.472Z,12.98
2022-09-26T22:54:06.648Z,13.13
2022-09-26T22:56:33.811Z,14.48
2022-09-26T22:59:03.111Z,15.43
2022-09-26T23:01:30.430Z,15.25
2022-09-26T23:03:59.205Z,15.25
2022-09-26T23:06:26.889Z,13.27
2022-09-26T23:08:54.258Z,15.23
2022-09-26T23:11:21.929Z,16.35
2022-09-26T23:13:50.883Z,13.48
2022-09-26T23:16:20.352Z,15.93
2022-09-26T23:18:48.180Z,15.73
2022-09-26T23:21:16.493Z,17.00
2022-09-26T23:23:44.990Z,16.38
2022-09-26T23:26:25.940Z,16.77
2022-09-26T23:28:53.896Z,15.93
2022-09-26T23:31:21.471Z,15.68
2022-09-26T23:33:48.922Z,16.75
2022-09-26T23:36:16.572Z,19.48
2022-09-26T23:38:43.925Z,14.60
2022-09-26T23:41:11.965Z,17.40
2022-09-26T23:43:39.684Z,17.13
2022-09-26T23:46:07.457Z,15.20
2022-09-26T23:48:35.225Z,15.93
2022-09-26T23:51:02.667Z,16.70
2022-09-26T23:53:29.949Z,15.63
2022-09-26T23:56:17.666Z,16.02
2022-09-26T23:58:44.932Z,15.13
